Time;durP1;ratioP1;P1;durP2;ratioP2;P2;SDS_P1;SDS_P2;PMS_P1;PMS_P2;Temp;Humidity;BMP_temperature;BMP_pressure;BME280_temperature;BME280_humidity;BME280_pressure;Samples;Min_cycle;Max_cycle;Signal;HPM_P1;HPM_P2
2021/12/22 00:02:09;;;;;;;15.50;13.33;;;0.10;58.10;;;;;;5134633;27;20594;-44
2021/12/22 00:04:43;;;;;;;18.90;14.33;;;0.10;58.10;;;;;;5129471;27;20520;-44
2021/12/22 00:07:08;;;;;;;15.70;14.10;;;0.10;58.20;;;;;;5130298;27;20306;-44
2021/12/22 00:09:34;;;;;;;17.80;15.13;;;0.00;58.20;;;;;;5129585;27;20785;-44
2021/12/22 00:12:00;;;;;;;16.47;13.90;;;0.00;58.20;;;;;;5132986;27;20186;-44
2021/12/22 00:14:25;;;;;;;14.87;13.30;;;0.00;58.20;;;;;;5130523;27;20171;-44
2021/12/22 00:16:51;;;;;;;16.63;13.90;;;0.00;58.10;;;;;;5095773;27;20480;-44
2021/12/22 00:19:17;;;;;;;15.57;13.83;;;0.00;58.00;;;;;;5133587;27;20532;-42
2021/12/22 00:21:42;;;;;;;19.60;13.60;;;0.00;57.90;;;;;;5130672;27;20172;-44
2021/12/22 00:24:08;;;;;;;17.17;14.10;;;-0.10;57.80;;;;;;5129845;27;20167;-44
2021/12/22 00:26:34;;;;;;;16.70;14.17;;;-0.10;57.80;;;;;;5130142;27;20172;-44
2021/12/22 00:29:00;;;;;;;15.93;13.30;;;-0.10;57.70;;;;;;5128566;27;20447;-44
2021/12/22 00:31:26;;;;;;;18.97;15.30;;;-0.10;57.80;;;;;;5133535;27;20175;-44
2021/12/22 00:33:53;;;;;;;16.90;13.97;;;-0.20;57.70;;;;;;5128187;27;20256;-44
2021/12/22 00:36:21;;;;;;;19.83;14.30;;;-0.20;57.70;;;;;;5130845;27;20610;-43
2021/12/22 00:38:49;;;;;;;16.17;12.97;;;-0.20;57.80;;;;;;5129615;27;20438;-44
2021/12/22 00:41:15;;;;;;;17.97;15.47;;;-0.30;57.70;;;;;;5112402;28;20431;-44
2021/12/22 00:43:41;;;;;;;14.90;12.97;;;-0.30;57.80;;;;;;5130186;27;20834;-43
2021/12/22 00:46:08;;;;;;;16.40;13.40;;;-0.30;57.90;;;;;;5131150;27;20541;-44
2021/12/22 00:48:34;;;;;;;17.83;14.70;;;-0.30;57.90;;;;;;5128851;27;20224;-43
2021/12/22 00:51:00;;;;;;;19.03;15.00;;;-0.30;57.90;;;;;;5130431;27;20410;-44
2021/12/22 00:53:26;;;;;;;17.77;15.83;;;-0.40;57.80;;;;;;5112253;27;20420;-44
2021/12/22 00:55:52;;;;;;;17.13;13.30;;;-0.40;58.20;;;;;;5130058;27;20756;-43
2021/12/22 00:58:18;;;;;;;19.67;15.97;;;-0.40;57.90;;;;;;5130435;27;20414;-44
2021/12/22 01:00:47;;;;;;;16.60;14.87;;;-0.50;57.90;;;;;;5129598;27;20683;-44
2021/12/22 01:03:13;;;;;;;15.67;13.73;;;-0.50;58.00;;;;;;5129512;27;20188;-44
2021/12/22 01:05:39;;;;;;;16.40;14.40;;;-0.50;58.00;;;;;;5133307;27;20523;-44
2021/12/22 01:08:05;;;;;;;17.87;13.70;;;-0.50;58.00;;;;;;5134499;27;20923;-44
2021/12/22 01:10:31;;;;;;;16.93;14.00;;;-0.60;57.90;;;;;;5129865;27;21566;-43
2021/12/22 01:12:59;;;;;;;16.70;13.47;;;-0.60;57.90;;;;;;5127766;27;20585;-44
2021/12/22 01:15:28;;;;;;;18.67;14.67;;;-0.60;57.90;;;;;;5128532;27;20806;-44
2021/12/22 01:18:06;;;;;;;16.40;14.13;;;-0.60;58.00;;;;;;5129457;27;20429;-43
2021/12/22 01:20:38;;;;;;;16.87;14.13;;;-0.60;58.00;;;;;;5129717;27;20417;-44
2021/12/22 01:23:06;;;;;;;19.13;14.30;;;-0.60;58.10;;;;;;5128399;27;20414;-44
2021/12/22 01:25:41;;;;;;;18.10;13.03;;;-0.70;58.00;;;;;;5131448;27;20441;-42
2021/12/22 01:28:07;;;;;;;16.87;13.03;;;-0.70;58.10;;;;;;5131555;27;20761;-43
2021/12/22 01:30:33;;;;;;;17.13;14.07;;;-0.70;58.00;;;;;;5133135;27;20420;-43
2021/12/22 01:33:01;;;;;;;14.70;13.10;;;-0.70;58.10;;;;;;5139014;27;20200;-44
2021/12/22 01:35:29;;;;;;;17.17;13.37;;;-0.70;58.20;;;;;;5137953;27;20465;-44
2021/12/22 01:37:55;;;;;;;15.97;14.27;;;-0.80;58.20;;;;;;5139367;27;20441;-44
2021/12/22 01:40:21;;;;;;;18.13;14.67;;;-0.80;58.20;;;;;;5139239;27;20409;-44
2021/12/22 01:42:48;;;;;;;19.13;14.00;;;-0.80;58.30;;;;;;5138820;27;20420;-44
2021/12/22 01:45:30;;;;;;;18.33;15.43;;;-0.80;58.40;;;;;;5138906;27;20563;-44
2021/12/22 01:50:51;;;;;;;16.87;13.47;;;-0.80;58.50;;;;;;5139012;27;20504;-45
2021/12/22 01:53:20;;;;;;;18.80;14.80;;;-0.90;58.50;;;;;;5138111;27;20420;-45
2021/12/22 01:55:47;;;;;;;19.77;14.60;;;-0.90;58.60;;;;;;5139218;27;20813;-45
2021/12/22 01:58:31;;;;;;;18.43;14.77;;;-0.90;58.70;;;;;;5120838;28;20516;-45
2021/12/22 02:00:56;;;;;;;17.07;14.30;;;-0.90;58.80;;;;;;5138739;28;20405;-45
2021/12/22 02:03:22;;;;;;;19.13;16.07;;;-0.90;59.00;;;;;;5120693;28;20671;-45
2021/12/22 02:05:49;;;;;;;18.13;13.97;;;-0.90;59.10;;;;;;5138884;28;20546;-45
2021/12/22 02:08:15;;;;;;;18.20;15.90;;;-0.90;59.30;;;;;;5138978;28;20179;-45
2021/12/22 02:10:46;;;;;;;15.37;13.50;;;-0.90;59.30;;;;;;5138751;28;20908;-45
2021/12/22 02:13:17;;;;;;;17.20;14.40;;;-1.00;59.30;;;;;;5138701;28;20182;-45
2021/12/22 02:15:47;;;;;;;17.90;15.50;;;-1.00;59.40;;;;;;5138353;28;20457;-45
2021/12/22 02:18:18;;;;;;;18.03;14.20;;;-1.00;59.50;;;;;;5138937;28;20413;-45
2021/12/22 02:20:49;;;;;;;18.10;14.53;;;-1.00;59.50;;;;;;5138623;28;20586;-45
2021/12/22 02:23:15;;;;;;;15.93;14.23;;;-1.00;59.50;;;;;;5138317;28;20484;-45
2021/12/22 02:25:52;;;;;;;19.40;15.07;;;-1.00;59.40;;;;;;5138608;28;20428;-45
2021/12/22 02:28:26;;;;;;;19.53;14.97;;;-1.10;59.30;;;;;;5138641;28;20441;-45
2021/12/22 02:30:53;;;;;;;18.50;16.20;;;-1.10;59.20;;;;;;5138399;28;20424;-44
2021/12/22 02:33:24;;;;;;;20.87;15.90;;;-1.10;59.20;;;;;;5138587;28;20416;-45
2021/12/22 02:35:55;;;;;;;19.00;15.90;;;-1.10;59.30;;;;;;5138457;28;20471;-45
2021/12/22 02:38:21;;;;;;;19.67;15.57;;;-1.10;59.30;;;;;;5138829;28;20434;-45
2021/12/22 02:40:49;;;;;;;16.90;15.10;;;-1.10;59.30;;;;;;5138402;28;20424;-45
2021/12/22 02:43:20;;;;;;;18.00;15.70;;;-1.20;59.30;;;;;;5138418;28;20417;-45
2021/12/22 02:45:47;;;;;;;18.57;15.27;;;-1.20;59.30;;;;;;5138021;27;20767;-45
2021/12/22 02:48:13;;;;;;;18.77;15.37;;;-1.20;59.30;;;;;;5142315;27;20680;-45
2021/12/22 02:50:40;;;;;;;17.30;15.50;;;-1.20;59.30;;;;;;5141370;27;20439;-45
2021/12/22 02:53:10;;;;;;;18.97;14.77;;;-1.20;59.30;;;;;;5142290;27;20266;-45
2021/12/22 02:55:49;;;;;;;20.40;15.30;;;-1.30;59.30;;;;;;5142077;27;20857;-45
2021/12/22 02:58:33;;;;;;;18.10;15.00;;;-1.30;59.30;;;;;;5123833;27;20425;-45
2021/12/22 03:03:47;;;;;;;18.53;15.70;;;-1.30;59.20;;;;;;5142557;27;20421;-45
2021/12/22 03:06:19;;;;;;;18.47;15.73;;;-1.30;59.20;;;;;;5141864;27;20427;-45
2021/12/22 03:08:44;;;;;;;20.57;15.50;;;-1.30;59.20;;;;;;5142356;27;20897;-45
2021/12/22 03:11:10;;;;;;;18.50;15.73;;;-1.40;59.10;;;;;;5141746;27;20504;-45
2021/12/22 03:13:36;;;;;;;17.53;15.13;;;-1.40;59.30;;;;;;5141988;27;20174;-45
2021/12/22 03:16:01;;;;;;;20.60;16.97;;;-1.40;59.40;;;;;;5141637;27;20558;-45
2021/12/22 03:18:31;;;;;;;18.97;15.70;;;-1.40;59.50;;;;;;5142019;27;20164;-45
2021/12/22 03:21:05;;;;;;;19.20;16.40;;;-1.40;59.50;;;;;;5124247;27;20175;-45
2021/12/22 03:23:31;;;;;;;21.30;16.70;;;-1.40;59.60;;;;;;5141948;27;20412;-45
2021/12/22 03:25:58;;;;;;;17.53;15.67;;;-1.40;59.60;;;;;;5140726;27;20847;-45
2021/12/22 03:28:24;;;;;;;21.40;16.40;;;-1.40;59.70;;;;;;5141505;27;20168;-45
2021/12/22 03:30:52;;;;;;;22.43;16.77;;;-1.40;59.80;;;;;;5141528;27;20410;-45
2021/12/22 03:33:18;;;;;;;23.77;16.83;;;-1.50;59.80;;;;;;5141450;27;20320;-45
2021/12/22 03:35:43;;;;;;;20.30;16.23;;;-1.50;59.90;;;;;;5141916;27;20544;-45
2021/12/22 03:38:09;;;;;;;21.83;16.00;;;-1.40;60.20;;;;;;5141272;27;20171;-45
2021/12/22 03:40:35;;;;;;;22.23;17.40;;;-1.50;60.30;;;;;;5141426;27;20247;-45
2021/12/22 03:43:00;;;;;;;20.37;16.23;;;-1.50;60.50;;;;;;5141264;27;20200;-45
2021/12/22 03:45:26;;;;;;;23.80;17.50;;;-1.50;60.80;;;;;;5140795;27;20609;-45
2021/12/22 03:47:52;;;;;;;19.83;16.77;;;-1.50;61.00;;;;;;5141143;27;20806;-45
2021/12/22 03:50:19;;;;;;;18.27;16.33;;;-1.50;61.00;;;;;;5141487;27;20171;-45
2021/12/22 03:52:47;;;;;;;19.57;16.70;;;-1.50;61.00;;;;;;5141170;27;20171;-43
2021/12/22 03:55:13;;;;;;;19.13;15.93;;;-1.50;61.00;;;;;;5140849;27;20792;-45
2021/12/22 03:57:39;;;;;;;20.50;17.20;;;-1.50;61.10;;;;;;5140143;27;20415;-45
2021/12/22 04:00:11;;;;;;;22.03;17.37;;;-1.50;61.40;;;;;;5140598;27;20175;-45
2021/12/22 04:02:36;;;;;;;22.50;17.10;;;-1.50;61.80;;;;;;5140237;27;20554;-45
2021/12/22 04:05:03;;;;;;;21.80;17.33;;;-1.50;62.20;;;;;;5121547;27;20429;-45
2021/12/22 04:07:29;;;;;;;20.70;16.77;;;-1.60;62.20;;;;;;5139947;27;20171;-45
2021/12/22 04:09:54;;;;;;;23.97;18.17;;;-1.60;62.30;;;;;;5140265;27;20425;-45
2021/12/22 04:12:20;;;;;;;20.60;17.00;;;-1.50;62.30;;;;;;5139752;27;20913;-45
2021/12/22 04:14:48;;;;;;;21.13;17.20;;;-1.60;62.20;;;;;;5122096;27;20190;-45
2021/12/22 04:17:16;;;;;;;20.47;17.40;;;-1.50;62.20;;;;;;5140415;27;20568;-45
2021/12/22 04:19:42;;;;;;;20.97;17.00;;;-1.60;62.10;;;;;;5140324;27;20421;-45
2021/12/22 04:22:08;;;;;;;19.80;16.80;;;-1.60;61.80;;;;;;5140888;27;20428;-46
2021/12/22 04:24:35;;;;;;;19.50;16.50;;;-1.60;61.70;;;;;;5140557;27;20556;-45
2021/12/22 04:27:00;;;;;;;19.57;17.30;;;-1.60;61.60;;;;;;5139871;27;20417;-45
2021/12/22 04:29:26;;;;;;;22.57;16.60;;;-1.60;61.60;;;;;;5140074;27;20834;-45
2021/12/22 04:31:52;;;;;;;20.90;18.23;;;-1.60;61.70;;;;;;5122080;27;20468;-45
2021/12/22 04:34:17;;;;;;;21.97;16.57;;;-1.60;61.90;;;;;;5139799;27;20179;-45
2021/12/22 04:36:43;;;;;;;24.90;17.83;;;-1.60;62.10;;;;;;5122106;27;20214;-45
2021/12/22 04:39:10;;;;;;;23.00;17.40;;;-1.70;62.20;;;;;;5138719;27;20210;-45
2021/12/22 04:41:36;;;;;;;19.80;16.00;;;-1.70;62.30;;;;;;5138326;27;20167;-45
2021/12/22 04:44:03;;;;;;;20.80;16.50;;;-1.70;62.40;;;;;;5137114;27;20405;-45
2021/12/22 04:46:28;;;;;;;25.23;17.60;;;-1.70;62.60;;;;;;5138026;27;20231;-45
2021/12/22 04:48:54;;;;;;;21.57;17.20;;;-1.80;62.70;;;;;;5138333;27;20413;-45
2021/12/22 04:51:26;;;;;;;24.40;16.30;;;-1.70;63.00;;;;;;5137794;27;20172;-45
2021/12/22 04:54:01;;;;;;;21.93;17.70;;;-1.70;63.20;;;;;;5136655;27;20174;-45
2021/12/22 04:56:27;;;;;;;23.97;17.33;;;-1.80;63.30;;;;;;5137488;27;20464;-45
2021/12/22 04:58:52;;;;;;;24.00;18.27;;;-1.70;63.60;;;;;;5137670;27;20412;-45
2021/12/22 05:01:18;;;;;;;22.13;18.23;;;-1.80;63.80;;;;;;5137407;27;20218;-45
2021/12/22 05:03:44;;;;;;;19.57;16.80;;;-1.80;64.10;;;;;;5137374;27;20191;-48
2021/12/22 05:06:09;;;;;;;22.67;18.33;;;-1.80;64.30;;;;;;5138150;27;20197;-47
2021/12/22 05:08:35;;;;;;;23.33;17.90;;;-1.70;64.60;;;;;;5139586;27;20477;-47
2021/12/22 05:11:01;;;;;;;23.03;19.07;;;-1.70;64.70;;;;;;5138926;27;20187;-48
2021/12/22 05:13:26;;;;;;;20.20;17.63;;;-1.70;64.60;;;;;;5139833;27;20175;-47
2021/12/22 05:15:52;;;;;;;20.73;17.80;;;-1.60;65.30;;;;;;5139975;27;20203;-47
2021/12/22 05:18:36;;;;;;;23.33;17.70;;;-1.60;64.60;;;;;;5139834;27;20596;-47
2021/12/22 05:21:02;;;;;;;22.30;18.00;;;-1.60;64.30;;;;;;5139258;27;20405;-47
2021/12/22 05:23:28;;;;;;;20.50;17.77;;;-1.50;64.30;;;;;;5139875;27;20416;-48
2021/12/22 05:25:53;;;;;;;23.50;18.30;;;-1.50;64.30;;;;;;5140043;27;20203;-47
2021/12/22 05:28:19;;;;;;;21.20;17.90;;;-1.50;64.30;;;;;;5140049;27;20451;-48
2021/12/22 05:30:47;;;;;;;24.57;17.93;;;-1.50;64.20;;;;;;5139642;27;20258;-47
2021/12/22 05:33:13;;;;;;;22.90;18.00;;;-1.50;64.30;;;;;;5139733;27;20468;-48
2021/12/22 05:35:39;;;;;;;26.13;18.90;;;-1.50;64.20;;;;;;5139491;27;20473;-48
2021/12/22 05:38:05;;;;;;;22.30;18.33;;;-1.50;64.30;;;;;;5139257;27;20509;-47
2021/12/22 05:40:31;;;;;;;28.30;18.70;;;-1.50;64.20;;;;;;5120846;28;20266;-47
2021/12/22 05:42:57;;;;;;;24.13;16.93;;;-1.50;64.10;;;;;;5137876;27;20511;-47
2021/12/22 05:45:24;;;;;;;21.67;16.93;;;-1.50;63.90;;;;;;5136997;27;20223;-47
2021/12/22 05:47:52;;;;;;;23.20;17.97;;;-1.50;63.70;;;;;;5137306;27;20781;-47
2021/12/22 05:50:19;;;;;;;24.10;18.27;;;-1.50;63.60;;;;;;5137245;27;20416;-47
2021/12/22 05:52:44;;;;;;;25.20;17.80;;;-1.60;63.40;;;;;;5119007;27;20474;-47
2021/12/22 05:55:10;;;;;;;23.53;18.37;;;-1.60;63.40;;;;;;5137924;27;20508;-47
2021/12/22 05:57:36;;;;;;;24.50;17.20;;;-1.60;63.50;;;;;;5137393;27;20534;-47
2021/12/22 06:00:07;;;;;;;22.63;18.40;;;-1.60;63.60;;;;;;5137643;27;20233;-48
2021/12/22 06:02:34;;;;;;;23.97;17.60;;;-1.60;63.70;;;;;;5120466;28;20194;-47
2021/12/22 06:05:00;;;;;;;21.90;17.70;;;-1.60;63.70;;;;;;5119624;28;20913;-47
2021/12/22 06:07:28;;;;;;;19.80;16.50;;;-1.60;63.70;;;;;;5138250;28;20421;-48
2021/12/22 06:09:53;;;;;;;21.40;17.43;;;-1.60;63.70;;;;;;5120543;28;20494;-47
2021/12/22 06:12:19;;;;;;;24.37;18.67;;;-1.60;63.90;;;;;;5139057;28;20417;-47
2021/12/22 06:14:47;;;;;;;21.20;17.83;;;-1.60;64.10;;;;;;5139269;28;20180;-47
2021/12/22 06:17:14;;;;;;;24.40;18.20;;;-1.60;64.20;;;;;;5138168;28;20171;-47
2021/12/22 06:19:39;;;;;;;22.20;18.00;;;-1.60;64.30;;;;;;5137907;28;20421;-47
2021/12/22 06:22:05;;;;;;;21.30;17.30;;;-1.70;64.30;;;;;;5139769;27;20937;-47
2021/12/22 06:24:30;;;;;;;22.80;18.27;;;-1.60;64.40;;;;;;5140852;27;20266;-47
2021/12/22 06:26:57;;;;;;;23.20;17.63;;;-1.70;64.30;;;;;;5140454;27;20564;-47
2021/12/22 06:29:24;;;;;;;23.00;16.97;;;-1.70;64.40;;;;;;5139717;27;20171;-47
2021/12/22 06:31:49;;;;;;;23.23;17.97;;;-1.70;64.40;;;;;;5138979;27;20437;-47
2021/12/22 06:34:15;;;;;;;23.27;18.60;;;-1.70;64.50;;;;;;5139322;27;21012;-47
2021/12/22 06:36:40;;;;;;;24.40;19.43;;;-1.70;64.50;;;;;;5126076;27;20609;-47
2021/12/22 06:39:06;;;;;;;25.20;18.00;;;-1.70;64.70;;;;;;5117254;28;20176;-47
2021/12/22 06:41:33;;;;;;;24.93;18.63;;;-1.70;64.80;;;;;;5117001;28;20258;-47
2021/12/22 06:43:58;;;;;;;26.10;18.10;;;-1.70;64.90;;;;;;5118406;28;20417;-47
2021/12/22 06:46:24;;;;;;;28.87;21.17;;;-1.70;65.10;;;;;;5118522;27;20744;-47
2021/12/22 06:48:50;;;;;;;24.43;18.30;;;-1.70;65.40;;;;;;5116778;27;20184;-48
2021/12/22 06:51:15;;;;;;;24.90;18.53;;;-1.70;65.70;;;;;;5116823;28;20187;-47
2021/12/22 06:53:41;;;;;;;23.10;18.47;;;-1.70;65.90;;;;;;5120160;27;20175;-47
2021/12/22 06:56:07;;;;;;;26.70;18.90;;;-1.70;66.10;;;;;;5136504;27;20214;-47
2021/12/22 06:58:35;;;;;;;24.53;19.40;;;-1.70;66.30;;;;;;5135535;27;20570;-47
2021/12/22 07:01:01;;;;;;;26.93;20.40;;;-1.70;66.60;;;;;;5135305;27;20195;-47
2021/12/22 07:03:27;;;;;;;26.83;19.00;;;-1.60;66.90;;;;;;5135249;27;20417;-47
2021/12/22 07:05:55;;;;;;;25.90;19.00;;;-1.60;67.30;;;;;;5134767;27;20275;-47
2021/12/22 07:08:21;;;;;;;25.93;18.97;;;-1.60;67.70;;;;;;5116693;27;20437;-47
2021/12/22 07:10:49;;;;;;;26.13;21.37;;;-1.60;68.10;;;;;;5136347;27;20440;-47
2021/12/22 07:13:15;;;;;;;24.83;18.63;;;-1.60;68.40;;;;;;5110051;28;20241;-47
2021/12/22 07:15:43;;;;;;;26.30;19.93;;;-1.60;68.40;;;;;;5099514;28;20883;-47
2021/12/22 07:18:10;;;;;;;25.30;19.27;;;-1.60;68.60;;;;;;5117713;28;20206;-47
2021/12/22 07:20:36;;;;;;;28.47;20.23;;;-1.60;69.50;;;;;;5118282;28;20468;-48
2021/12/22 07:23:02;;;;;;;23.63;18.57;;;-1.50;69.50;;;;;;5136943;27;20452;-48
2021/12/22 07:25:28;;;;;;;26.63;20.97;;;-1.50;70.00;;;;;;5112987;28;20582;-48
2021/12/22 07:27:54;;;;;;;31.20;19.93;;;-1.50;70.20;;;;;;5126622;27;20425;-47
2021/12/22 07:30:19;;;;;;;28.47;21.37;;;-1.50;70.40;;;;;;5138965;27;20183;-48
2021/12/22 07:32:45;;;;;;;27.20;20.97;;;-1.40;70.60;;;;;;5139004;27;20223;-48
2021/12/22 07:35:27;;;;;;;28.20;19.90;;;-1.40;70.70;;;;;;5139115;27;20214;-48
2021/12/22 07:38:24;;;;;;;29.10;19.90;;;-1.40;70.90;;;;;;5100760;28;20168;-47
2021/12/22 07:40:50;;;;;;;27.17;20.63;;;-1.30;71.10;;;;;;5119005;28;20406;-45
2021/12/22 07:43:17;;;;;;;28.57;19.43;;;-1.30;71.20;;;;;;5118995;28;20883;-47
2021/12/22 07:45:42;;;;;;;28.60;20.60;;;-1.30;71.20;;;;;;5118419;28;20476;-48
2021/12/22 07:48:08;;;;;;;27.70;19.93;;;-1.20;71.30;;;;;;5117574;28;20415;-48
2021/12/22 07:50:34;;;;;;;27.30;19.73;;;-1.10;71.50;;;;;;5129189;27;20440;-48
2021/12/22 07:52:59;;;;;;;27.13;19.23;;;-1.00;71.50;;;;;;5138012;27;20225;-48
2021/12/22 07:55:25;;;;;;;28.80;20.40;;;-0.80;71.40;;;;;;5120695;27;20223;-48
2021/12/22 07:57:50;;;;;;;25.70;19.23;;;-0.60;71.10;;;;;;5139453;27;20195;-49
2021/12/22 08:00:19;;;;;;;25.27;19.10;;;-0.30;70.70;;;;;;5139317;27;20619;-47
2021/12/22 08:02:45;;;;;;;26.80;19.70;;;0.00;70.10;;;;;;5139192;27;20190;-47
2021/12/22 08:05:10;;;;;;;25.30;19.03;;;0.40;69.50;;;;;;5139676;27;20428;-47
2021/12/22 08:07:36;;;;;;;22.57;19.40;;;0.70;68.50;;;;;;5121444;27;20212;-47
2021/12/22 08:10:06;;;;;;;24.23;19.47;;;1.10;67.50;;;;;;5139412;27;20220;-47
2021/12/22 08:12:32;;;;;;;25.13;20.00;;;1.50;66.50;;;;;;5138394;27;20180;-47
2021/12/22 08:14:58;;;;;;;26.30;19.83;;;1.90;65.40;;;;;;5138176;27;20421;-47
2021/12/22 08:17:27;;;;;;;24.43;19.27;;;2.40;64.40;;;;;;5126683;27;20430;-47
2021/12/22 08:19:53;;;;;;;23.43;19.40;;;2.80;63.40;;;;;;5120531;27;20196;-47
2021/12/22 08:22:19;;;;;;;25.10;19.93;;;3.20;62.20;;;;;;5119536;27;20436;-47
2021/12/22 08:24:45;;;;;;;22.43;18.93;;;3.60;61.10;;;;;;5136204;27;20436;-47
2021/12/22 08:27:11;;;;;;;24.90;20.80;;;4.00;60.00;;;;;;5137640;27;20183;-47
2021/12/22 08:29:41;;;;;;;26.20;21.23;;;4.40;59.40;;;;;;5120341;27;20862;-47
2021/12/22 08:32:07;;;;;;;25.67;21.57;;;4.80;58.70;;;;;;5138698;27;20476;-48
2021/12/22 08:34:37;;;;;;;34.50;24.57;;;5.30;58.10;;;;;;5137079;27;20511;-47
2021/12/22 08:39:51;;;;;;;27.57;21.30;;;6.10;56.60;;;;;;5138811;27;20971;-47
2021/12/22 08:42:17;;;;;;;26.37;22.57;;;6.60;55.80;;;;;;5137647;27;20416;-47
2021/12/22 08:44:43;;;;;;;24.63;19.73;;;7.00;54.80;;;;;;5137121;27;20726;-48
2021/12/22 08:47:09;;;;;;;21.57;17.50;;;7.40;53.90;;;;;;5135779;27;20469;-48
2021/12/22 08:49:35;;;;;;;22.00;18.17;;;7.70;53.00;;;;;;5135556;27;20896;-48
2021/12/22 08:52:01;;;;;;;19.67;17.40;;;8.20;52.20;;;;;;5135677;27;20168;-48
2021/12/22 08:54:27;;;;;;;18.50;16.60;;;8.50;51.40;;;;;;5134823;27;20427;-48
2021/12/22 08:56:55;;;;;;;17.83;16.07;;;8.90;50.60;;;;;;5135000;27;20498;-48
2021/12/22 08:59:21;;;;;;;18.30;16.40;;;9.30;49.60;;;;;;5135511;27;20445;-48
2021/12/22 09:01:47;;;;;;;17.90;16.20;;;9.70;48.80;;;;;;5118332;27;20706;-48
2021/12/22 09:04:12;;;;;;;17.17;15.40;;;10.00;47.10;;;;;;5136225;27;20428;-48
2021/12/22 09:06:38;;;;;;;20.57;17.50;;;10.40;46.30;;;;;;5137336;27;20183;-48
2021/12/22 09:09:05;;;;;;;18.70;16.70;;;10.70;45.40;;;;;;5137900;27;20197;-48
2021/12/22 09:11:31;;;;;;;19.27;17.30;;;11.00;44.60;;;;;;5134436;27;20185;-48
2021/12/22 09:13:57;;;;;;;18.27;16.33;;;11.40;44.10;;;;;;5119222;27;20424;-49
2021/12/22 09:16:24;;;;;;;16.87;15.17;;;11.70;43.50;;;;;;5119061;27;20211;-49
2021/12/22 09:18:49;;;;;;;17.77;16.07;;;12.10;42.90;;;;;;5118665;27;20421;-47
2021/12/22 09:21:16;;;;;;;18.77;16.87;;;12.40;42.30;;;;;;5134863;27;20421;-49
2021/12/22 09:23:42;;;;;;;17.47;15.77;;;12.70;41.60;;;;;;5134692;27;20178;-47
2021/12/22 09:26:08;;;;;;;19.30;17.50;;;13.00;41.00;;;;;;5134252;27;20522;-47
2021/12/22 09:28:35;;;;;;;18.03;16.27;;;13.30;40.40;;;;;;5134120;27;20428;-47
2021/12/22 09:31:01;;;;;;;16.53;15.00;;;13.60;39.90;;;;;;5135099;27;20425;-47
2021/12/22 09:33:27;;;;;;;19.33;17.57;;;14.00;39.50;;;;;;5135413;27;20711;-48
2021/12/22 09:35:54;;;;;;;15.80;14.30;;;14.40;38.90;;;;;;5118805;27;20464;-48
2021/12/22 09:38:20;;;;;;;17.27;15.57;;;14.70;38.30;;;;;;5137046;27;20215;-48
2021/12/22 09:40:46;;;;;;;15.60;14.20;;;15.10;37.90;;;;;;5135751;27;20415;-48
2021/12/22 09:43:12;;;;;;;15.43;14.07;;;15.50;37.20;;;;;;5117415;27;20820;-48
2021/12/22 09:45:44;;;;;;;15.83;14.43;;;15.90;36.70;;;;;;5136289;27;20488;-43
2021/12/22 09:53:28;;;;;;;14.83;13.40;;;16.80;34.10;;;;;;5136648;27;20419;-44
2021/12/22 09:55:55;;;;;;;14.83;13.53;;;17.00;33.40;;;;;;5135170;27;20480;-42
2021/12/22 09:58:21;;;;;;;15.13;13.73;;;17.20;32.70;;;;;;5115506;27;20601;-41
2021/12/22 10:00:51;;;;;;;17.27;15.67;;;17.50;32.60;;;;;;5115451;28;20432;-42
2021/12/22 10:03:17;;;;;;;15.20;13.90;;;17.70;32.40;;;;;;5114449;28;20406;-42
2021/12/22 10:05:44;;;;;;;14.77;13.50;;;17.90;31.70;;;;;;5132801;28;20431;-41
2021/12/22 10:08:12;;;;;;;12.97;11.83;;;18.10;31.40;;;;;;5110015;28;20489;-42
2021/12/22 10:10:41;;;;;;;13.80;12.60;;;18.50;31.30;;;;;;5115565;28;20699;-41
2021/12/22 10:13:09;;;;;;;15.83;14.43;;;18.80;31.10;;;;;;5098210;28;20455;-42
2021/12/22 10:15:36;;;;;;;14.10;12.80;;;19.10;31.20;;;;;;5113049;28;20466;-42
2021/12/22 10:18:12;;;;;;;13.73;12.60;;;19.50;30.50;;;;;;5111903;28;20692;-42
2021/12/22 10:20:40;;;;;;;13.03;11.93;;;19.90;30.20;;;;;;5113998;28;20444;-42
2021/12/22 10:23:29;;;;;;;13.67;12.47;;;20.20;29.90;;;;;;5110900;28;20433;-41
2021/12/22 10:26:06;;;;;;;13.33;12.23;;;20.50;29.50;;;;;;5111990;28;20425;-43
2021/12/22 10:28:59;;;;;;;13.50;12.40;;;20.60;28.80;;;;;;5094550;28;20435;-42
2021/12/22 10:31:36;;;;;;;14.30;13.10;;;20.70;28.50;;;;;;5099998;28;20919;-44
2021/12/22 10:34:20;;;;;;;9.10;8.20;;;20.90;28.20;;;;;;5134966;28;20411;-43
2021/12/22 10:36:52;;;;;;;10.63;8.00;;;21.20;33.50;;;;;;5133667;28;20476;-45
2021/12/22 10:39:30;;;;;;;8.40;7.60;;;21.70;36.30;;;;;;5131777;28;20416;-47
2021/12/22 10:42:02;;;;;;;9.30;8.03;;;22.20;35.90;;;;;;5131206;28;20416;-46
2021/12/22 10:44:39;;;;;;;11.77;8.00;;;22.60;35.30;;;;;;5128958;28;20957;-45
2021/12/22 10:47:22;;;;;;;8.80;7.77;;;23.10;35.70;;;;;;5128278;28;20521;-44
2021/12/22 10:50:06;;;;;;;6.20;5.60;;;23.60;35.80;;;;;;5128759;28;20816;-44
2021/12/22 10:52:32;;;;;;;6.50;5.87;;;24.10;38.10;;;;;;5108538;28;20697;-45
2021/12/22 10:55:13;;;;;;;7.80;5.90;;;24.50;38.50;;;;;;5125412;28;20706;-44
2021/12/22 10:57:44;;;;;;;7.10;6.40;;;24.80;37.90;;;;;;5128124;28;20517;-41
2021/12/22 11:00:18;;;;;;;7.93;7.23;;;25.00;37.30;;;;;;5131540;28;20435;-44
2021/12/22 11:02:50;;;;;;;7.10;6.50;;;25.30;35.80;;;;;;5130369;28;20608;-45
2021/12/22 11:05:18;;;;;;;10.23;7.50;;;25.60;35.10;;;;;;5114156;28;20431;-45
2021/12/22 11:07:43;;;;;;;9.83;7.37;;;25.60;34.50;;;;;;5133674;27;20765;-44
2021/12/22 11:10:24;;;;;;;7.50;6.27;;;25.80;34.30;;;;;;5136205;27;20452;-44
2021/12/22 11:13:03;;;;;;;20.07;6.80;;;26.10;34.00;;;;;;5136309;27;20638;-45
2021/12/22 11:15:28;;;;;;;10.67;6.43;;;26.20;33.90;;;;;;5134117;27;20492;-44
2021/12/22 11:17:55;;;;;;;6.90;6.20;;;26.50;33.50;;;;;;5134220;27;20864;-45
2021/12/22 11:20:27;;;;;;;8.30;7.50;;;26.60;33.70;;;;;;5116053;27;20280;-44
2021/12/22 11:23:04;;;;;;;8.77;6.73;;;26.80;33.40;;;;;;5134473;27;20414;-43
2021/12/22 11:25:30;;;;;;;7.80;7.10;;;26.90;33.00;;;;;;5131533;27;20921;-45
2021/12/22 11:27:57;;;;;;;11.10;6.63;;;27.00;32.80;;;;;;5129268;27;20426;-43
2021/12/22 11:30:27;;;;;;;15.47;7.97;;;27.00;32.30;;;;;;5125337;27;20433;-44
2021/12/22 11:32:54;;;;;;;8.10;7.33;;;27.20;32.10;;;;;;5099972;28;20403;-44
2021/12/22 11:35:23;;;;;;;9.03;7.97;;;27.40;31.20;;;;;;5119448;27;20456;-44
2021/12/22 11:37:49;;;;;;;9.37;6.93;;;27.70;30.70;;;;;;5128380;27;20448;-44
2021/12/22 11:40:21;;;;;;;7.93;7.13;;;27.60;31.20;;;;;;5118733;28;20433;-43
2021/12/22 11:42:47;;;;;;;8.03;7.40;;;27.70;30.90;;;;;;5131432;27;20487;-46
2021/12/22 11:45:19;;;;;;;7.90;7.20;;;27.60;30.30;;;;;;5117554;28;20430;-46
2021/12/22 11:47:50;;;;;;;10.53;8.00;;;27.80;30.20;;;;;;5118008;28;20204;-44
2021/12/22 11:50:36;;;;;;;8.13;7.17;;;28.00;29.80;;;;;;5100076;28;20769;-44
2021/12/22 11:53:08;;;;;;;10.17;9.27;;;28.00;29.70;;;;;;5118483;28;20526;-47
2021/12/22 11:55:41;;;;;;;8.00;7.30;;;28.10;29.00;;;;;;5119155;28;20567;-44
2021/12/22 11:58:14;;;;;;;9.70;8.70;;;28.20;29.40;;;;;;5117218;28;20416;-44
2021/12/22 12:01:08;;;;;;;8.40;7.70;;;28.00;28.40;;;;;;5119185;28;20419;-45
2021/12/22 12:03:40;;;;;;;10.57;9.60;;;28.20;28.70;;;;;;5119469;28;20426;-46
2021/12/22 12:06:21;;;;;;;8.87;8.07;;;28.40;28.20;;;;;;5118205;28;20902;-45
2021/12/22 12:08:50;;;;;;;9.00;8.30;;;28.60;28.30;;;;;;5119714;28;20441;-45
2021/12/22 12:11:20;;;;;;;10.00;9.00;;;28.70;28.00;;;;;;5118708;28;21018;-44
2021/12/22 12:13:54;;;;;;;8.80;8.00;;;28.60;27.80;;;;;;5084938;28;20456;-44
2021/12/22 12:21:59;;;;;;;9.20;8.40;;;28.70;28.00;;;;;;5118142;28;20423;-43
2021/12/22 12:24:30;;;;;;;11.67;10.57;;;28.80;27.80;;;;;;5100202;28;20390;-43
2021/12/22 12:27:00;;;;;;;11.50;10.60;;;28.60;26.30;;;;;;5117995;28;21064;-44
2021/12/22 12:30:07;;;;;;;10.73;9.87;;;28.60;25.50;;;;;;5116954;28;20404;-44
2021/12/22 12:32:50;;;;;;;11.23;10.37;;;28.70;24.90;;;;;;5094486;28;20861;-42
2021/12/22 12:35:19;;;;;;;11.80;10.80;;;28.80;24.50;;;;;;5118249;28;20439;-47
2021/12/22 12:38:06;;;;;;;10.87;10.07;;;28.90;24.10;;;;;;5118352;28;20847;-41
2021/12/22 12:40:57;;;;;;;11.70;10.80;;;29.00;24.00;;;;;;5116606;28;20419;-45
2021/12/22 12:46:19;;;;;;;12.70;11.70;;;28.90;23.30;;;;;;5115449;28;20531;-44
2021/12/22 12:49:07;;;;;;;13.30;12.20;;;28.90;23.20;;;;;;5117129;28;20427;-44
2021/12/22 12:51:40;;;;;;;12.40;11.40;;;29.10;23.20;;;;;;5115354;28;20493;-43
2021/12/22 12:54:17;;;;;;;12.40;11.40;;;29.00;23.10;;;;;;5116061;28;20414;-43
2021/12/22 12:56:51;;;;;;;11.23;10.33;;;29.10;23.20;;;;;;5117111;28;20449;-47
2021/12/22 12:59:26;;;;;;;12.53;11.43;;;29.20;23.10;;;;;;5117124;28;20550;-44
2021/12/22 13:01:52;;;;;;;11.87;10.97;;;29.30;23.20;;;;;;5100094;28;20792;-45